sensor_id;sensor_type;location;lat;lon;timestamp;P1;durP1;ratioP1;P2;durP2;ratioP2
15925;SDS011;8062;53.882;10.642;2023-06-10T00:00:49;0.20;;;0.20;;
15925;SDS011;8062;53.882;10.642;2023-06-10T00:02:10;0.20;;;0.20;;
15925;SDS011;8062;53.882;10.642;2023-06-10T00:03:29;0.20;;;0.20;;
15925;SDS011;8062;53.882;10.642;2023-06-10T00:04:49;0.20;;;0.20;;
15925;SDS011;8062;53.882;10.642;2023-06-10T00:06:09;0.20;;;0.20;;
15925;SDS011;8062;53.882;10.642;2023-06-10T00:07:28;0.20;;;0.20;;
15925;SDS011;8062;53.882;10.642;2023-06-10T00:08:48;0.20;;;0.20;;
15925;SDS011;8062;53.882;10.642;2023-06-10T00:10:08;0.20;;;0.20;;
15925;SDS011;8062;53.882;10.642;2023-06-10T00:11:30;0.20;;;0.20;;
15925;SDS011;8062;53.882;10.642;2023-06-10T00:12:50;0.20;;;0.20;;
15925;SDS011;8062;53.882;10.642;2023-06-10T00:14:10;0.20;;;0.20;;
15925;SDS011;8062;53.882;10.642;2023-06-10T00:15:30;0.20;;;0.20;;
15925;SDS011;8062;53.882;10.642;2023-06-10T00:16:50;0.20;;;0.20;;
15925;SDS011;8062;53.882;10.642;2023-06-10T00:18:11;0.20;;;0.20;;
15925;SDS011;8062;53.882;10.642;2023-06-10T00:19:30;0.20;;;0.20;;
15925;SDS011;8062;53.882;10.642;2023-06-10T00:20:50;0.20;;;0.20;;
15925;SDS011;8062;53.882;10.642;2023-06-10T00:22:11;0.20;;;0.20;;
15925;SDS011;8062;53.882;10.642;2023-06-10T00:23:31;0.20;;;0.20;;
15925;SDS011;8062;53.882;10.642;2023-06-10T00:24:57;0.30;;;0.30;;
15925;SDS011;8062;53.882;10.642;2023-06-10T00:26:16;0.20;;;0.20;;
15925;SDS011;8062;53.882;10.642;2023-06-10T00:27:38;0.20;;;0.20;;
15925;SDS011;8062;53.882;10.642;2023-06-10T00:28:57;0.20;;;0.20;;
15925;SDS011;8062;53.882;10.642;2023-06-10T00:30:18;0.20;;;0.20;;
15925;SDS011;8062;53.882;10.642;2023-06-10T00:31:37;0.20;;;0.20;;
15925;SDS011;8062;53.882;10.642;2023-06-10T00:32:59;0.13;;;0.13;;
15925;SDS011;8062;53.882;10.642;2023-06-10T00:34:19;0.20;;;0.20;;
15925;SDS011;8062;53.882;10.642;2023-06-10T00:35:38;0.20;;;0.20;;
15925;SDS011;8062;53.882;10.642;2023-06-10T00:36:58;0.20;;;0.20;;
15925;SDS011;8062;53.882;10.642;2023-06-10T00:38:18;0.20;;;0.20;;
15925;SDS011;8062;53.882;10.642;2023-06-10T00:39:38;0.20;;;0.20;;
15925;SDS011;8062;53.882;10.642;2023-06-10T00:40:57;0.20;;;0.20;;
15925;SDS011;8062;53.882;10.642;2023-06-10T00:42:17;0.20;;;0.20;;
15925;SDS011;8062;53.882;10.642;2023-06-10T00:43:37;0.30;;;0.30;;
15925;SDS011;8062;53.882;10.642;2023-06-10T00:44:57;0.20;;;0.20;;
15925;SDS011;8062;53.882;10.642;2023-06-10T00:46:16;0.10;;;0.10;;
15925;SDS011;8062;53.882;10.642;2023-06-10T00:47:37;0.30;;;0.30;;
15925;SDS011;8062;53.882;10.642;2023-06-10T00:48:57;0.30;;;0.30;;
15925;SDS011;8062;53.882;10.642;2023-06-10T00:50:17;0.20;;;0.20;;
15925;SDS011;8062;53.882;10.642;2023-06-10T00:51:37;0.20;;;0.20;;
15925;SDS011;8062;53.882;10.642;2023-06-10T00:52:58;0.20;;;0.20;;
15925;SDS011;8062;53.882;10.642;2023-06-10T00:54:19;0.20;;;0.20;;
15925;SDS011;8062;53.882;10.642;2023-06-10T00:55:40;0.27;;;0.27;;
15925;SDS011;8062;53.882;10.642;2023-06-10T00:57:01;0.30;;;0.30;;
15925;SDS011;8062;53.882;10.642;2023-06-10T00:58:22;0.20;;;0.20;;
15925;SDS011;8062;53.882;10.642;2023-06-10T00:59:44;0.20;;;0.20;;
15925;SDS011;8062;53.882;10.642;2023-06-10T01:01:06;0.30;;;0.30;;
15925;SDS011;8062;53.882;10.642;2023-06-10T01:02:29;0.10;;;0.10;;
15925;SDS011;8062;53.882;10.642;2023-06-10T01:03:51;0.20;;;0.20;;
15925;SDS011;8062;53.882;10.642;2023-06-10T01:05:10;0.23;;;0.23;;
15925;SDS011;8062;53.882;10.642;2023-06-10T01:06:35;0.20;;;0.20;;
15925;SDS011;8062;53.882;10.642;2023-06-10T01:08:07;0.20;;;0.20;;
15925;SDS011;8062;53.882;10.642;2023-06-10T01:09:38;0.20;;;0.20;;
15925;SDS011;8062;53.882;10.642;2023-06-10T01:11:20;0.10;;;0.10;;
15925;SDS011;8062;53.882;10.642;2023-06-10T01:14:22;0.20;;;0.20;;
15925;SDS011;8062;53.882;10.642;2023-06-10T01:15:42;0.30;;;0.30;;
15925;SDS011;8062;53.882;10.642;2023-06-10T01:17:02;0.20;;;0.20;;
15925;SDS011;8062;53.882;10.642;2023-06-10T01:18:22;0.20;;;0.20;;
15925;SDS011;8062;53.882;10.642;2023-06-10T01:19:42;0.20;;;0.20;;
15925;SDS011;8062;53.882;10.642;2023-06-10T01:21:02;0.30;;;0.30;;
15925;SDS011;8062;53.882;10.642;2023-06-10T01:22:25;0.20;;;0.20;;
15925;SDS011;8062;53.882;10.642;2023-06-10T01:23:51;0.20;;;0.20;;
15925;SDS011;8062;53.882;10.642;2023-06-10T01:25:12;0.20;;;0.20;;
15925;SDS011;8062;53.882;10.642;2023-06-10T01:26:32;0.30;;;0.30;;
15925;SDS011;8062;53.882;10.642;2023-06-10T01:29:37;0.30;;;0.30;;
15925;SDS011;8062;53.882;10.642;2023-06-10T01:33:02;0.20;;;0.20;;
15925;SDS011;8062;53.882;10.642;2023-06-10T01:34:23;0.30;;;0.30;;
15925;SDS011;8062;53.882;10.642;2023-06-10T01:35:43;0.30;;;0.30;;
15925;SDS011;8062;53.882;10.642;2023-06-10T01:37:05;0.20;;;0.20;;
15925;SDS011;8062;53.882;10.642;2023-06-10T01:38:26;0.20;;;0.20;;
15925;SDS011;8062;53.882;10.642;2023-06-10T01:39:48;0.20;;;0.20;;
15925;SDS011;8062;53.882;10.642;2023-06-10T01:41:09;0.30;;;0.30;;
15925;SDS011;8062;53.882;10.642;2023-06-10T01:42:30;0.30;;;0.30;;
15925;SDS011;8062;53.882;10.642;2023-06-10T01:43:51;0.30;;;0.30;;
15925;SDS011;8062;53.882;10.642;2023-06-10T01:45:10;0.20;;;0.20;;
15925;SDS011;8062;53.882;10.642;2023-06-10T01:46:30;0.20;;;0.20;;
15925;SDS011;8062;53.882;10.642;2023-06-10T01:47:49;0.20;;;0.20;;
15925;SDS011;8062;53.882;10.642;2023-06-10T01:49:09;0.20;;;0.20;;
15925;SDS011;8062;53.882;10.642;2023-06-10T01:50:29;0.20;;;0.20;;
15925;SDS011;8062;53.882;10.642;2023-06-10T01:51:49;0.27;;;0.27;;
15925;SDS011;8062;53.882;10.642;2023-06-10T01:53:08;0.40;;;0.40;;
15925;SDS011;8062;53.882;10.642;2023-06-10T01:54:28;0.30;;;0.30;;
15925;SDS011;8062;53.882;10.642;2023-06-10T01:55:48;0.27;;;0.27;;
15925;SDS011;8062;53.882;10.642;2023-06-10T01:57:07;0.10;;;0.10;;
15925;SDS011;8062;53.882;10.642;2023-06-10T01:58:27;0.10;;;0.10;;
15925;SDS011;8062;53.882;10.642;2023-06-10T01:59:46;0.30;;;0.30;;
15925;SDS011;8062;53.882;10.642;2023-06-10T02:01:07;0.20;;;0.20;;
15925;SDS011;8062;53.882;10.642;2023-06-10T02:02:27;0.20;;;0.20;;
15925;SDS011;8062;53.882;10.642;2023-06-10T02:03:46;0.30;;;0.30;;
15925;SDS011;8062;53.882;10.642;2023-06-10T02:05:06;0.20;;;0.20;;
15925;SDS011;8062;53.882;10.642;2023-06-10T02:06:26;0.30;;;0.30;;
15925;SDS011;8062;53.882;10.642;2023-06-10T02:07:46;0.30;;;0.30;;
15925;SDS011;8062;53.882;10.642;2023-06-10T02:09:05;0.20;;;0.20;;
15925;SDS011;8062;53.882;10.642;2023-06-10T02:10:25;0.30;;;0.30;;
15925;SDS011;8062;53.882;10.642;2023-06-10T02:11:45;0.20;;;0.20;;
15925;SDS011;8062;53.882;10.642;2023-06-10T02:13:05;0.27;;;0.27;;
15925;SDS011;8062;53.882;10.642;2023-06-10T02:14:25;0.23;;;0.23;;
15925;SDS011;8062;53.882;10.642;2023-06-10T02:15:44;0.17;;;0.17;;
15925;SDS011;8062;53.882;10.642;2023-06-10T02:17:04;0.20;;;0.20;;
15925;SDS011;8062;53.882;10.642;2023-06-10T02:18:24;0.17;;;0.17;;
15925;SDS011;8062;53.882;10.642;2023-06-10T02:19:45;0.30;;;0.30;;
15925;SDS011;8062;53.882;10.642;2023-06-10T02:21:11;0.30;;;0.30;;
15925;SDS011;8062;53.882;10.642;2023-06-10T02:22:31;0.30;;;0.30;;
15925;SDS011;8062;53.882;10.642;2023-06-10T02:23:50;0.30;;;0.30;;
15925;SDS011;8062;53.882;10.642;2023-06-10T02:25:10;0.20;;;0.20;;
15925;SDS011;8062;53.882;10.642;2023-06-10T02:26:29;0.30;;;0.30;;
15925;SDS011;8062;53.882;10.642;2023-06-10T02:27:53;0.30;;;0.30;;
15925;SDS011;8062;53.882;10.642;2023-06-10T02:29:12;0.30;;;0.30;;
15925;SDS011;8062;53.882;10.642;2023-06-10T02:30:32;0.20;;;0.20;;
15925;SDS011;8062;53.882;10.642;2023-06-10T02:31:52;0.20;;;0.20;;
15925;SDS011;8062;53.882;10.642;2023-06-10T02:33:12;0.20;;;0.20;;
15925;SDS011;8062;53.882;10.642;2023-06-10T02:34:32;0.20;;;0.20;;
15925;SDS011;8062;53.882;10.642;2023-06-10T02:35:52;0.20;;;0.20;;
15925;SDS011;8062;53.882;10.642;2023-06-10T02:37:13;0.30;;;0.30;;
15925;SDS011;8062;53.882;10.642;2023-06-10T02:38:32;0.20;;;0.20;;
15925;SDS011;8062;53.882;10.642;2023-06-10T02:39:53;0.40;;;0.40;;
15925;SDS011;8062;53.882;10.642;2023-06-10T02:41:13;0.20;;;0.20;;
15925;SDS011;8062;53.882;10.642;2023-06-10T02:42:34;0.20;;;0.20;;
15925;SDS011;8062;53.882;10.642;2023-06-10T02:43:54;0.20;;;0.20;;
15925;SDS011;8062;53.882;10.642;2023-06-10T02:45:14;0.30;;;0.30;;
15925;SDS011;8062;53.882;10.642;2023-06-10T02:46:36;0.20;;;0.20;;
15925;SDS011;8062;53.882;10.642;2023-06-10T02:47:57;0.20;;;0.20;;
15925;SDS011;8062;53.882;10.642;2023-06-10T02:49:17;0.20;;;0.20;;
15925;SDS011;8062;53.882;10.642;2023-06-10T02:50:38;0.30;;;0.30;;
15925;SDS011;8062;53.882;10.642;2023-06-10T02:52:17;0.30;;;0.30;;
15925;SDS011;8062;53.882;10.642;2023-06-10T02:53:36;0.20;;;0.20;;
15925;SDS011;8062;53.882;10.642;2023-06-10T02:55:01;0.20;;;0.20;;
15925;SDS011;8062;53.882;10.642;2023-06-10T02:56:20;0.20;;;0.20;;
15925;SDS011;8062;53.882;10.642;2023-06-10T02:57:42;0.20;;;0.20;;
15925;SDS011;8062;53.882;10.642;2023-06-10T02:59:01;0.20;;;0.20;;
15925;SDS011;8062;53.882;10.642;2023-06-10T03:00:23;0.30;;;0.30;;
15925;SDS011;8062;53.882;10.642;2023-06-10T03:01:43;0.20;;;0.20;;
15925;SDS011;8062;53.882;10.642;2023-06-10T03:03:04;0.40;;;0.40;;
15925;SDS011;8062;53.882;10.642;2023-06-10T03:04:30;0.20;;;0.20;;
15925;SDS011;8062;53.882;10.642;2023-06-10T03:05:56;0.20;;;0.20;;
15925;SDS011;8062;53.882;10.642;2023-06-10T03:07:18;0.30;;;0.30;;
15925;SDS011;8062;53.882;10.642;2023-06-10T03:08:39;0.30;;;0.30;;
15925;SDS011;8062;53.882;10.642;2023-06-10T03:10:03;0.20;;;0.20;;
15925;SDS011;8062;53.882;10.642;2023-06-10T03:11:24;0.30;;;0.30;;
15925;SDS011;8062;53.882;10.642;2023-06-10T03:12:45;0.23;;;0.23;;
15925;SDS011;8062;53.882;10.642;2023-06-10T03:14:05;0.40;;;0.40;;
15925;SDS011;8062;53.882;10.642;2023-06-10T03:15:25;0.30;;;0.30;;
15925;SDS011;8062;53.882;10.642;2023-06-10T03:16:48;0.40;;;0.40;;
15925;SDS011;8062;53.882;10.642;2023-06-10T03:18:08;0.20;;;0.20;;
15925;SDS011;8062;53.882;10.642;2023-06-10T03:19:28;0.20;;;0.20;;
15925;SDS011;8062;53.882;10.642;2023-06-10T03:20:48;0.30;;;0.30;;
15925;SDS011;8062;53.882;10.642;2023-06-10T03:22:10;0.30;;;0.30;;
15925;SDS011;8062;53.882;10.642;2023-06-10T03:23:53;0.20;;;0.20;;
15925;SDS011;8062;53.882;10.642;2023-06-10T03:25:13;0.20;;;0.20;;
15925;SDS011;8062;53.882;10.642;2023-06-10T03:26:35;0.20;;;0.20;;
15925;SDS011;8062;53.882;10.642;2023-06-10T03:27:55;0.20;;;0.20;;
15925;SDS011;8062;53.882;10.642;2023-06-10T03:29:14;0.30;;;0.30;;
15925;SDS011;8062;53.882;10.642;2023-06-10T03:30:34;0.20;;;0.20;;
15925;SDS011;8062;53.882;10.642;2023-06-10T03:31:54;0.20;;;0.20;;
15925;SDS011;8062;53.882;10.642;2023-06-10T03:33:13;0.20;;;0.20;;
15925;SDS011;8062;53.882;10.642;2023-06-10T03:34:34;0.20;;;0.20;;
15925;SDS011;8062;53.882;10.642;2023-06-10T03:35:54;0.20;;;0.20;;
15925;SDS011;8062;53.882;10.642;2023-06-10T03:37:14;0.23;;;0.23;;
15925;SDS011;8062;53.882;10.642;2023-06-10T03:38:35;0.20;;;0.20;;
15925;SDS011;8062;53.882;10.642;2023-06-10T03:39:55;0.30;;;0.30;;
15925;SDS011;8062;53.882;10.642;2023-06-10T03:41:15;0.27;;;0.27;;
15925;SDS011;8062;53.882;10.642;2023-06-10T03:42:35;0.30;;;0.30;;
15925;SDS011;8062;53.882;10.642;2023-06-10T03:43:55;0.30;;;0.30;;
15925;SDS011;8062;53.882;10.642;2023-06-10T03:45:15;0.30;;;0.30;;
15925;SDS011;8062;53.882;10.642;2023-06-10T03:46:35;0.30;;;0.30;;
15925;SDS011;8062;53.882;10.642;2023-06-10T03:47:56;0.30;;;0.30;;
15925;SDS011;8062;53.882;10.642;2023-06-10T03:49:20;0.30;;;0.30;;
15925;SDS011;8062;53.882;10.642;2023-06-10T03:50:40;0.37;;;0.37;;
15925;SDS011;8062;53.882;10.642;2023-06-10T03:52:00;0.30;;;0.30;;
15925;SDS011;8062;53.882;10.642;2023-06-10T03:53:19;0.20;;;0.20;;
15925;SDS011;8062;53.882;10.642;2023-06-10T03:54:39;0.30;;;0.30;;
15925;SDS011;8062;53.882;10.642;2023-06-10T03:55:59;0.20;;;0.20;;
15925;SDS011;8062;53.882;10.642;2023-06-10T03:57:19;0.27;;;0.27;;
15925;SDS011;8062;53.882;10.642;2023-06-10T03:58:39;0.30;;;0.30;;
15925;SDS011;8062;53.882;10.642;2023-06-10T03:59:59;0.20;;;0.20;;
15925;SDS011;8062;53.882;10.642;2023-06-10T04:01:19;0.20;;;0.20;;
15925;SDS011;8062;53.882;10.642;2023-06-10T04:02:39;0.20;;;0.20;;
15925;SDS011;8062;53.882;10.642;2023-06-10T04:04:09;0.20;;;0.20;;
15925;SDS011;8062;53.882;10.642;2023-06-10T04:05:29;0.10;;;0.10;;
15925;SDS011;8062;53.882;10.642;2023-06-10T04:06:50;0.17;;;0.17;;
15925;SDS011;8062;53.882;10.642;2023-06-10T04:08:10;0.20;;;0.20;;
15925;SDS011;8062;53.882;10.642;2023-06-10T04:09:30;0.10;;;0.10;;
15925;SDS011;8062;53.882;10.642;2023-06-10T04:10:49;0.20;;;0.20;;
15925;SDS011;8062;53.882;10.642;2023-06-10T04:12:09;0.20;;;0.20;;
15925;SDS011;8062;53.882;10.642;2023-06-10T04:13:29;0.20;;;0.20;;
15925;SDS011;8062;53.882;10.642;2023-06-10T04:14:51;0.20;;;0.20;;
15925;SDS011;8062;53.882;10.642;2023-06-10T04:16:11;0.20;;;0.20;;
15925;SDS011;8062;53.882;10.642;2023-06-10T04:17:31;0.20;;;0.20;;
15925;SDS011;8062;53.882;10.642;2023-06-10T04:18:50;0.20;;;0.20;;
15925;SDS011;8062;53.882;10.642;2023-06-10T04:20:11;0.17;;;0.17;;
15925;SDS011;8062;53.882;10.642;2023-06-10T04:21:33;0.20;;;0.20;;
15925;SDS011;8062;53.882;10.642;2023-06-10T04:22:53;0.20;;;0.20;;
15925;SDS011;8062;53.882;10.642;2023-06-10T04:24:13;0.10;;;0.10;;
15925;SDS011;8062;53.882;10.642;2023-06-10T04:25:33;0.20;;;0.20;;
15925;SDS011;8062;53.882;10.642;2023-06-10T04:26:53;0.17;;;0.17;;
15925;SDS011;8062;53.882;10.642;2023-06-10T04:28:12;0.20;;;0.20;;
15925;SDS011;8062;53.882;10.642;2023-06-10T04:29:33;0.20;;;0.20;;
15925;SDS011;8062;53.882;10.642;2023-06-10T04:30:54;0.10;;;0.10;;
15925;SDS011;8062;53.882;10.642;2023-06-10T04:32:13;0.20;;;0.20;;
15925;SDS011;8062;53.882;10.642;2023-06-10T04:33:33;0.30;;;0.30;;
15925;SDS011;8062;53.882;10.642;2023-06-10T04:34:55;0.20;;;0.20;;
15925;SDS011;8062;53.882;10.642;2023-06-10T04:36:15;0.20;;;0.20;;
15925;SDS011;8062;53.882;10.642;2023-06-10T04:37:35;0.10;;;0.10;;
15925;SDS011;8062;53.882;10.642;2023-06-10T04:38:54;0.30;;;0.30;;
15925;SDS011;8062;53.882;10.642;2023-06-10T04:40:14;0.20;;;0.20;;
15925;SDS011;8062;53.882;10.642;2023-06-10T04:41:35;0.23;;;0.23;;
15925;SDS011;8062;53.882;10.642;2023-06-10T04:42:55;0.20;;;0.20;;
15925;SDS011;8062;53.882;10.642;2023-06-10T04:44:15;0.20;;;0.20;;
15925;SDS011;8062;53.882;10.642;2023-06-10T04:45:35;0.20;;;0.20;;
15925;SDS011;8062;53.882;10.642;2023-06-10T04:46:55;0.20;;;0.20;;
15925;SDS011;8062;53.882;10.642;2023-06-10T04:48:15;0.30;;;0.30;;
15925;SDS011;8062;53.882;10.642;2023-06-10T04:49:35;0.10;;;0.10;;
15925;SDS011;8062;53.882;10.642;2023-06-10T04:50:55;0.30;;;0.30;;
15925;SDS011;8062;53.882;10.642;2023-06-10T04:52:15;0.20;;;0.20;;
15925;SDS011;8062;53.882;10.642;2023-06-10T04:53:35;0.20;;;0.20;;
15925;SDS011;8062;53.882;10.642;2023-06-10T04:54:56;0.20;;;0.20;;
15925;SDS011;8062;53.882;10.642;2023-06-10T04:56:17;0.10;;;0.10;;
15925;SDS011;8062;53.882;10.642;2023-06-10T04:57:36;0.20;;;0.20;;
15925;SDS011;8062;53.882;10.642;2023-06-10T04:58:57;0.30;;;0.30;;
15925;SDS011;8062;53.882;10.642;2023-06-10T05:00:18;0.20;;;0.20;;
15925;SDS011;8062;53.882;10.642;2023-06-10T05:01:37;0.30;;;0.30;;
15925;SDS011;8062;53.882;10.642;2023-06-10T05:02:57;0.10;;;0.10;;
15925;SDS011;8062;53.882;10.642;2023-06-10T05:04:17;0.30;;;0.30;;
15925;SDS011;8062;53.882;10.642;2023-06-10T05:05:36;0.20;;;0.20;;
15925;SDS011;8062;53.882;10.642;2023-06-10T05:06:55;0.20;;;0.20;;
15925;SDS011;8062;53.882;10.642;2023-06-10T05:08:15;0.20;;;0.20;;
15925;SDS011;8062;53.882;10.642;2023-06-10T05:09:34;0.20;;;0.20;;
15925;SDS011;8062;53.882;10.642;2023-06-10T05:10:54;0.10;;;0.10;;
15925;SDS011;8062;53.882;10.642;2023-06-10T05:12:14;0.20;;;0.20;;
15925;SDS011;8062;53.882;10.642;2023-06-10T05:13:34;0.20;;;0.20;;
15925;SDS011;8062;53.882;10.642;2023-06-10T05:14:54;0.20;;;0.20;;
15925;SDS011;8062;53.882;10.642;2023-06-10T05:16:13;0.10;;;0.10;;
15925;SDS011;8062;53.882;10.642;2023-06-10T05:17:34;0.10;;;0.10;;
15925;SDS011;8062;53.882;10.642;2023-06-10T05:18:56;0.20;;;0.20;;
15925;SDS011;8062;53.882;10.642;2023-06-10T05:20:16;0.20;;;0.20;;
15925;SDS011;8062;53.882;10.642;2023-06-10T05:21:36;0.10;;;0.10;;
15925;SDS011;8062;53.882;10.642;2023-06-10T05:22:55;0.20;;;0.20;;
15925;SDS011;8062;53.882;10.642;2023-06-10T05:24:15;0.20;;;0.20;;
15925;SDS011;8062;53.882;10.642;2023-06-10T05:25:34;0.20;;;0.20;;
15925;SDS011;8062;53.882;10.642;2023-06-10T05:26:54;0.20;;;0.20;;
15925;SDS011;8062;53.882;10.642;2023-06-10T05:28:14;0.20;;;0.20;;
15925;SDS011;8062;53.882;10.642;2023-06-10T05:29:33;0.13;;;0.13;;
15925;SDS011;8062;53.882;10.642;2023-06-10T05:30:53;0.10;;;0.10;;
15925;SDS011;8062;53.882;10.642;2023-06-10T05:32:12;0.10;;;0.10;;
15925;SDS011;8062;53.882;10.642;2023-06-10T05:33:32;0.10;;;0.10;;
15925;SDS011;8062;53.882;10.642;2023-06-10T05:34:51;0.10;;;0.10;;
15925;SDS011;8062;53.882;10.642;2023-06-10T05:36:11;0.20;;;0.20;;
15925;SDS011;8062;53.882;10.642;2023-06-10T05:37:31;0.20;;;0.20;;
15925;SDS011;8062;53.882;10.642;2023-06-10T05:38:52;0.20;;;0.20;;
15925;SDS011;8062;53.882;10.642;2023-06-10T05:40:11;0.20;;;0.20;;
15925;SDS011;8062;53.882;10.642;2023-06-10T05:41:30;0.20;;;0.20;;
15925;SDS011;8062;53.882;10.642;2023-06-10T05:42:50;0.20;;;0.20;;
15925;SDS011;8062;53.882;10.642;2023-06-10T05:44:10;0.30;;;0.30;;
15925;SDS011;8062;53.882;10.642;2023-06-10T05:45:29;0.30;;;0.30;;
15925;SDS011;8062;53.882;10.642;2023-06-10T05:46:49;0.37;;;0.37;;
15925;SDS011;8062;53.882;10.642;2023-06-10T05:48:08;0.30;;;0.30;;
15925;SDS011;8062;53.882;10.642;2023-06-10T05:49:27;0.40;;;0.40;;
15925;SDS011;8062;53.882;10.642;2023-06-10T05:50:47;0.40;;;0.40;;
15925;SDS011;8062;53.882;10.642;2023-06-10T05:52:07;0.50;;;0.50;;
15925;SDS011;8062;53.882;10.642;2023-06-10T05:53:26;0.60;;;0.60;;
15925;SDS011;8062;53.882;10.642;2023-06-10T05:54:46;0.40;;;0.40;;
15925;SDS011;8062;53.882;10.642;2023-06-10T05:56:05;0.43;;;0.43;;
15925;SDS011;8062;53.882;10.642;2023-06-10T05:57:25;0.20;;;0.20;;
15925;SDS011;8062;53.882;10.642;2023-06-10T05:58:45;0.20;;;0.20;;
15925;SDS011;8062;53.882;10.642;2023-06-10T06:00:04;0.20;;;0.20;;
15925;SDS011;8062;53.882;10.642;2023-06-10T06:01:31;0.17;;;0.17;;
15925;SDS011;8062;53.882;10.642;2023-06-10T06:02:50;0.20;;;0.20;;
15925;SDS011;8062;53.882;10.642;2023-06-10T06:04:11;0.20;;;0.20;;
15925;SDS011;8062;53.882;10.642;2023-06-10T06:05:31;0.10;;;0.10;;
15925;SDS011;8062;53.882;10.642;2023-06-10T06:06:54;0.20;;;0.20;;
15925;SDS011;8062;53.882;10.642;2023-06-10T06:08:13;0.10;;;0.10;;
15925;SDS011;8062;53.882;10.642;2023-06-10T06:09:36;0.10;;;0.10;;
15925;SDS011;8062;53.882;10.642;2023-06-10T06:10:55;0.10;;;0.10;;
15925;SDS011;8062;53.882;10.642;2023-06-10T06:12:15;0.10;;;0.10;;
15925;SDS011;8062;53.882;10.642;2023-06-10T06:13:35;0.10;;;0.10;;
15925;SDS011;8062;53.882;10.642;2023-06-10T06:14:55;0.10;;;0.10;;
15925;SDS011;8062;53.882;10.642;2023-06-10T06:16:14;0.10;;;0.10;;
15925;SDS011;8062;53.882;10.642;2023-06-10T06:17:34;0.00;;;0.00;;
15925;SDS011;8062;53.882;10.642;2023-06-10T06:18:53;0.10;;;0.10;;
15925;SDS011;8062;53.882;10.642;2023-06-10T06:20:13;0.10;;;0.10;;
15925;SDS011;8062;53.882;10.642;2023-06-10T06:21:32;0.00;;;0.00;;
15925;SDS011;8062;53.882;10.642;2023-06-10T06:22:52;0.10;;;0.10;;
15925;SDS011;8062;53.882;10.642;2023-06-10T06:24:12;0.10;;;0.10;;
15925;SDS011;8062;53.882;10.642;2023-06-10T06:25:31;0.10;;;0.10;;
15925;SDS011;8062;53.882;10.642;2023-06-10T06:26:50;0.10;;;0.10;;
15925;SDS011;8062;53.882;10.642;2023-06-10T06:28:10;0.00;;;0.00;;
15925;SDS011;8062;53.882;10.642;2023-06-10T06:29:29;0.10;;;0.10;;
15925;SDS011;8062;53.882;10.642;2023-06-10T06:30:49;0.10;;;0.10;;
15925;SDS011;8062;53.882;10.642;2023-06-10T06:32:08;0.10;;;0.10;;
15925;SDS011;8062;53.882;10.642;2023-06-10T06:33:28;0.10;;;0.10;;
15925;SDS011;8062;53.882;10.642;2023-06-10T06:34:48;0.10;;;0.10;;
15925;SDS011;8062;53.882;10.642;2023-06-10T06:36:13;0.20;;;0.20;;
15925;SDS011;8062;53.882;10.642;2023-06-10T06:37:32;0.23;;;0.23;;
15925;SDS011;8062;53.882;10.642;2023-06-10T06:39:07;0.30;;;0.30;;
15925;SDS011;8062;53.882;10.642;2023-06-10T06:40:27;0.23;;;0.23;;
15925;SDS011;8062;53.882;10.642;2023-06-10T06:41:46;0.30;;;0.30;;
15925;SDS011;8062;53.882;10.642;2023-06-10T06:43:06;0.40;;;0.40;;
15925;SDS011;8062;53.882;10.642;2023-06-10T06:44:31;0.20;;;0.20;;
15925;SDS011;8062;53.882;10.642;2023-06-10T06:45:51;0.20;;;0.20;;
15925;SDS011;8062;53.882;10.642;2023-06-10T06:47:10;0.20;;;0.20;;
15925;SDS011;8062;53.882;10.642;2023-06-10T06:48:29;0.20;;;0.20;;
15925;SDS011;8062;53.882;10.642;2023-06-10T06:49:49;0.30;;;0.30;;
15925;SDS011;8062;53.882;10.642;2023-06-10T06:51:08;0.20;;;0.20;;
15925;SDS011;8062;53.882;10.642;2023-06-10T06:52:28;0.17;;;0.17;;
15925;SDS011;8062;53.882;10.642;2023-06-10T06:53:47;0.20;;;0.20;;
15925;SDS011;8062;53.882;10.642;2023-06-10T06:55:09;0.10;;;0.10;;
15925;SDS011;8062;53.882;10.642;2023-06-10T06:56:28;0.10;;;0.10;;
15925;SDS011;8062;53.882;10.642;2023-06-10T06:57:47;0.10;;;0.10;;
15925;SDS011;8062;53.882;10.642;2023-06-10T06:59:07;0.10;;;0.10;;
15925;SDS011;8062;53.882;10.642;2023-06-10T07:00:27;0.10;;;0.10;;
15925;SDS011;8062;53.882;10.642;2023-06-10T07:01:46;0.20;;;0.20;;
15925;SDS011;8062;53.882;10.642;2023-06-10T07:03:06;0.10;;;0.10;;
15925;SDS011;8062;53.882;10.642;2023-06-10T07:04:25;0.10;;;0.10;;
15925;SDS011;8062;53.882;10.642;2023-06-10T07:05:45;0.00;;;0.00;;
15925;SDS011;8062;53.882;10.642;2023-06-10T07:07:04;0.10;;;0.10;;
15925;SDS011;8062;53.882;10.642;2023-06-10T07:08:26;0.10;;;0.10;;
15925;SDS011;8062;53.882;10.642;2023-06-10T07:09:45;0.10;;;0.10;;
15925;SDS011;8062;53.882;10.642;2023-06-10T07:11:05;0.13;;;0.13;;
15925;SDS011;8062;53.882;10.642;2023-06-10T07:12:24;0.08;;;0.08;;
15925;SDS011;8062;53.882;10.642;2023-06-10T07:13:43;0.00;;;0.00;;
15925;SDS011;8062;53.882;10.642;2023-06-10T07:15:03;0.10;;;0.10;;
15925;SDS011;8062;53.882;10.642;2023-06-10T07:16:23;0.10;;;0.10;;
15925;SDS011;8062;53.882;10.642;2023-06-10T07:17:43;0.10;;;0.10;;
15925;SDS011;8062;53.882;10.642;2023-06-10T07:19:03;0.10;;;0.10;;
15925;SDS011;8062;53.882;10.642;2023-06-10T07:20:23;0.00;;;0.00;;
15925;SDS011;8062;53.882;10.642;2023-06-10T07:21:42;0.10;;;0.10;;
15925;SDS011;8062;53.882;10.642;2023-06-10T07:23:02;0.10;;;0.10;;
15925;SDS011;8062;53.882;10.642;2023-06-10T07:24:21;0.03;;;0.03;;
15925;SDS011;8062;53.882;10.642;2023-06-10T07:25:41;0.00;;;0.00;;
15925;SDS011;8062;53.882;10.642;2023-06-10T07:27:01;0.00;;;0.00;;
15925;SDS011;8062;53.882;10.642;2023-06-10T07:28:21;0.03;;;0.03;;
15925;SDS011;8062;53.882;10.642;2023-06-10T07:29:40;0.00;;;0.00;;
15925;SDS011;8062;53.882;10.642;2023-06-10T07:30:59;0.00;;;0.00;;
15925;SDS011;8062;53.882;10.642;2023-06-10T07:32:19;0.00;;;0.00;;
15925;SDS011;8062;53.882;10.642;2023-06-10T07:33:42;0.00;;;0.00;;
15925;SDS011;8062;53.882;10.642;2023-06-10T07:35:02;0.03;;;0.03;;
15925;SDS011;8062;53.882;10.642;2023-06-10T07:36:22;0.00;;;0.00;;
15925;SDS011;8062;53.882;10.642;2023-06-10T07:37:41;0.00;;;0.00;;
15925;SDS011;8062;53.882;10.642;2023-06-10T07:39:01;0.00;;;0.00;;
15925;SDS011;8062;53.882;10.642;2023-06-10T07:40:20;0.00;;;0.00;;
15925;SDS011;8062;53.882;10.642;2023-06-10T07:41:40;0.00;;;0.00;;
15925;SDS011;8062;53.882;10.642;2023-06-10T07:43:00;0.03;;;0.03;;
15925;SDS011;8062;53.882;10.642;2023-06-10T07:44:19;0.00;;;0.00;;
15925;SDS011;8062;53.882;10.642;2023-06-10T07:45:39;0.00;;;0.00;;
15925;SDS011;8062;53.882;10.642;2023-06-10T07:46:59;0.00;;;0.00;;
15925;SDS011;8062;53.882;10.642;2023-06-10T07:48:19;0.00;;;0.00;;
15925;SDS011;8062;53.882;10.642;2023-06-10T07:49:39;0.00;;;0.00;;
15925;SDS011;8062;53.882;10.642;2023-06-10T07:50:59;0.00;;;0.00;;
15925;SDS011;8062;53.882;10.642;2023-06-10T07:52:19;0.00;;;0.00;;
15925;SDS011;8062;53.882;10.642;2023-06-10T07:53:38;0.10;;;0.10;;
15925;SDS011;8062;53.882;10.642;2023-06-10T07:54:58;0.00;;;0.00;;
15925;SDS011;8062;53.882;10.642;2023-06-10T07:56:17;0.00;;;0.00;;
15925;SDS011;8062;53.882;10.642;2023-06-10T07:57:37;0.00;;;0.00;;
15925;SDS011;8062;53.882;10.642;2023-06-10T07:58:57;0.00;;;0.00;;
15925;SDS011;8062;53.882;10.642;2023-06-10T08:00:17;0.00;;;0.00;;
15925;SDS011;8062;53.882;10.642;2023-06-10T08:01:37;0.00;;;0.00;;
15925;SDS011;8062;53.882;10.642;2023-06-10T08:02:58;0.00;;;0.00;;
15925;SDS011;8062;53.882;10.642;2023-06-10T08:04:17;0.00;;;0.00;;
15925;SDS011;8062;53.882;10.642;2023-06-10T08:05:38;0.00;;;0.00;;
15925;SDS011;8062;53.882;10.642;2023-06-10T08:06:58;0.00;;;0.00;;
15925;SDS011;8062;53.882;10.642;2023-06-10T08:08:18;0.00;;;0.00;;
15925;SDS011;8062;53.882;10.642;2023-06-10T08:09:37;0.00;;;0.00;;
15925;SDS011;8062;53.882;10.642;2023-06-10T08:10:57;0.00;;;0.00;;